Terminal Aerodrome Forecast
Issued by NWS Blacksburg, VA

Current Version | Previous Version | Graphics & Text | Print | Product List | Glossary On
Versions: 1 2 3 4 5 6 7 8 9 10 11 12 13 14 15 16 17 18 19 20 21 22 23 24 25 26 27 28 29 30 31 32 33 34 35 36 37 38 39 40 41 42 43
000
FTUS41 KRNK 250948 AAA
TAFBLF
TAF AMD
KBLF 250948Z 2510/2606 27010KT P6SM OVC022
     FM251100 28008KT P6SM BKN020
     FM252000 VRB03KT P6SM SCT015
     FM252300 07003KT P6SM OVC015
     FM260100 13003KT P6SM -SN OVC012
     FM260300 12003KT 1 1/2SM -SN BR OVC004=

USA.gov is the U.S. government's official web portal to all federal, state and local government web resources and services.